Time;durP1;ratioP1;P1;durP2;ratioP2;P2;SDS_P1;SDS_P2;PMS_P1;PMS_P2;Temp;Humidity;BMP_temperature;BMP_pressure;BME280_temperature;BME280_humidity;BME280_pressure;Samples;Min_cycle;Max_cycle;Signal;HPM_P1;HPM_P2
2022/11/20 00:00:50;;;;;;;15.15;9.45;;;;;;;3.15;nan;100079.50;5052168;28;20037;-67
2022/11/20 00:03:15;;;;;;;16.13;10.95;;;;;;;3.14;nan;100082.22;5050225;28;20078;-67
2022/11/20 00:05:40;;;;;;;16.15;10.05;;;;;;;3.13;nan;100083.16;5049471;28;20116;-67
2022/11/20 00:08:06;;;;;;;17.38;11.02;;;;;;;3.09;nan;100076.50;5031730;28;20052;-67
2022/11/20 00:10:31;;;;;;;17.90;10.82;;;;;;;3.05;nan;100075.91;5043033;28;20029;-67
2022/11/20 00:13:00;;;;;;;18.60;11.52;;;;;;;3.04;nan;100073.41;5032992;28;20063;-67
2022/11/20 00:15:25;;;;;;;16.55;10.40;;;;;;;3.08;nan;100074.84;5046207;28;20041;-67
2022/11/20 00:17:50;;;;;;;15.40;9.90;;;;;;;3.09;nan;100081.72;5046329;28;20777;-68
2022/11/20 00:20:16;;;;;;;15.23;9.30;;;;;;;3.03;nan;100080.41;5046002;28;20116;-66
2022/11/20 00:22:41;;;;;;;18.38;10.90;;;;;;;3.03;nan;100082.16;5046224;28;20501;-66
2022/11/20 00:25:07;;;;;;;19.83;12.38;;;;;;;3.00;nan;100079.78;5046418;28;20265;-69
2022/11/20 00:27:32;;;;;;;20.10;13.15;;;;;;;2.95;nan;100075.72;5046654;28;20029;-66
2022/11/20 00:29:57;;;;;;;18.45;11.90;;;;;;;2.92;nan;100075.97;5045731;28;20037;-66
2022/11/20 00:32:22;;;;;;;17.58;10.20;;;;;;;2.95;nan;100070.50;5047389;28;20041;-67
2022/11/20 00:34:48;;;;;;;20.73;13.45;;;;;;;2.89;nan;100086.66;5047514;28;20033;-69
2022/11/20 00:37:13;;;;;;;17.85;11.63;;;;;;;2.89;nan;100093.66;5033901;28;20033;-67
2022/11/20 00:39:38;;;;;;;17.13;11.40;;;;;;;2.94;nan;100081.91;5048995;28;20518;-66
2022/11/20 00:42:03;;;;;;;18.88;11.85;;;;;;;2.94;nan;100066.25;5042847;28;20040;-67
2022/11/20 00:44:29;;;;;;;17.25;11.18;;;;;;;2.91;nan;100063.88;5041393;28;20041;-67
2022/11/20 00:46:54;;;;;;;15.50;9.80;;;;;;;2.92;nan;100072.53;5039952;28;20044;-66
2022/11/20 00:49:19;;;;;;;15.88;9.88;;;;;;;2.94;nan;100065.44;5040448;28;20125;-67
2022/11/20 00:51:45;;;;;;;14.02;8.73;;;;;;;3.00;nan;100067.56;5027706;28;20382;-67
2022/11/20 00:54:10;;;;;;;12.40;7.55;;;;;;;2.98;nan;100065.09;5046207;28;20116;-67
2022/11/20 00:56:35;;;;;;;15.48;9.73;;;;;;;2.96;nan;100076.59;5043270;28;20132;-67
2022/11/20 00:59:01;;;;;;;18.02;11.15;;;;;;;2.96;nan;100087.03;5042489;28;20060;-67
2022/11/20 01:01:28;;;;;;;14.05;9.05;;;;;;;2.97;nan;100086.91;5039641;28;20041;-67
2022/11/20 01:03:56;;;;;;;13.15;7.85;;;;;;;3.01;nan;100084.91;5040166;28;20119;-67
2022/11/20 01:06:23;;;;;;;12.63;7.68;;;;;;;3.05;nan;100081.13;5039640;28;20033;-67
2022/11/20 01:08:50;;;;;;;12.73;8.35;;;;;;;3.04;nan;100082.06;5036916;28;20064;-67
2022/11/20 01:11:18;;;;;;;14.57;9.18;;;;;;;3.00;nan;100085.84;5044976;28;20033;-67
2022/11/20 01:13:45;;;;;;;16.42;9.90;;;;;;;2.96;nan;100089.66;5028453;28;20040;-67
2022/11/20 01:16:20;;;;;;;13.32;8.23;;;;;;;2.97;nan;100089.53;5027247;28;20061;-68
2022/11/20 01:18:49;;;;;;;14.70;9.13;;;;;;;3.00;nan;100085.03;5030475;28;20041;-67
2022/11/20 01:21:24;;;;;;;12.73;7.80;;;;;;;2.98;nan;100083.38;5030815;28;20032;-67
2022/11/20 01:23:51;;;;;;;13.80;8.70;;;;;;;2.96;nan;100093.09;5046736;28;20130;-67
2022/11/20 01:26:20;;;;;;;15.30;9.45;;;;;;;2.96;nan;100087.88;5043911;28;20029;-67
2022/11/20 01:28:46;;;;;;;13.95;8.85;;;;;;;2.95;nan;100090.59;5044413;28;20044;-67
2022/11/20 01:31:23;;;;;;;15.57;9.88;;;;;;;2.89;nan;100089.25;5036266;28;20036;-67
2022/11/20 01:33:50;;;;;;;17.75;10.50;;;;;;;2.89;nan;100083.22;5045339;28;20163;-67
2022/11/20 01:36:17;;;;;;;14.52;8.70;;;;;;;2.92;nan;100082.97;5044835;28;20409;-67
2022/11/20 01:38:43;;;;;;;12.13;7.78;;;;;;;2.95;nan;100074.91;5040308;28;20430;-67
2022/11/20 01:41:11;;;;;;;15.48;9.43;;;;;;;2.91;nan;100086.56;5041678;28;20048;-67
2022/11/20 01:43:36;;;;;;;15.32;9.98;;;;;;;2.89;nan;100093.66;5044855;28;20040;-67
2022/11/20 01:46:14;;;;;;;19.00;11.48;;;;;;;2.83;nan;100071.44;5041690;28;20045;-67
2022/11/20 01:49:02;;;;;;;19.85;11.73;;;;;;;2.85;nan;100081.78;5045433;28;20032;-67
2022/11/20 01:51:42;;;;;;;18.30;10.93;;;;;;;2.87;nan;100056.38;5038918;28;20041;-67
2022/11/20 01:54:13;;;;;;;16.08;10.32;;;;;;;2.88;nan;100073.69;5042024;28;20041;-68
2022/11/20 01:56:44;;;;;;;17.58;10.60;;;;;;;2.92;nan;100057.69;5033783;28;20793;-67
2022/11/20 01:59:13;;;;;;;18.90;10.70;;;;;;;2.94;nan;100065.44;5020076;28;20029;-67
2022/11/20 02:01:38;;;;;;;19.63;12.10;;;;;;;2.92;nan;100057.69;5036775;28;20033;-67
2022/11/20 02:04:05;;;;;;;18.27;11.45;;;;;;;2.94;nan;100052.38;5043779;28;20563;-67
2022/11/20 02:06:40;;;;;;;19.38;11.35;;;;;;;2.95;nan;100061.84;5038666;28;20039;-67
2022/11/20 02:09:05;;;;;;;14.35;8.90;;;;;;;3.01;nan;100066.63;5025083;28;20037;-67
2022/11/20 02:11:31;;;;;;;13.93;8.65;;;;;;;3.08;nan;100072.25;5047148;28;20033;-67
2022/11/20 02:13:57;;;;;;;18.25;10.98;;;;;;;3.07;nan;100063.53;5046609;28;20116;-67
2022/11/20 02:16:30;;;;;;;18.95;11.40;;;;;;;3.03;nan;100046.47;5041021;28;20140;-67
2022/11/20 02:18:58;;;;;;;19.73;12.27;;;;;;;3.01;nan;100052.75;5040152;28;20619;-67
2022/11/20 02:21:51;;;;;;;17.70;10.60;;;;;;;3.04;nan;100052.50;5039509;28;20131;-67
2022/11/20 02:24:19;;;;;;;14.85;8.93;;;;;;;3.11;nan;100054.53;5039053;28;20123;-67
2022/11/20 02:26:57;;;;;;;12.82;7.60;;;;;;;3.16;nan;100056.81;5042230;28;20056;-67
2022/11/20 02:29:27;;;;;;;13.50;8.73;;;;;;;3.18;nan;100057.53;5045282;28;20029;-67
2022/11/20 02:31:54;;;;;;;13.50;8.57;;;;;;;3.20;nan;100063.47;5038144;28;20045;-66
2022/11/20 02:34:20;;;;;;;14.15;8.98;;;;;;;3.22;nan;100060.72;5047177;28;20079;-67
2022/11/20 02:36:47;;;;;;;14.07;8.57;;;;;;;3.19;nan;100054.81;5045484;28;20057;-67
2022/11/20 02:39:13;;;;;;;17.50;10.80;;;;;;;3.20;nan;100045.19;5036105;28;20029;-67
2022/11/20 02:41:39;;;;;;;17.25;11.27;;;;;;;3.16;nan;100036.72;5046881;28;20067;-67
2022/11/20 02:44:05;;;;;;;19.48;12.15;;;;;;;3.08;nan;100036.50;5044149;28;20069;-67
2022/11/20 02:46:30;;;;;;;16.02;10.30;;;;;;;3.10;nan;100013.69;5042216;28;20477;-66
2022/11/20 02:48:56;;;;;;;15.43;9.73;;;;;;;3.13;nan;100021.28;5042302;28;20116;-67
2022/11/20 02:51:21;;;;;;;19.67;11.80;;;;;;;3.13;nan;100021.28;5038403;28;20036;-67
2022/11/20 02:53:47;;;;;;;20.30;12.55;;;;;;;3.13;nan;100020.47;5040597;28;20044;-67
2022/11/20 02:56:12;;;;;;;17.80;11.57;;;;;;;3.10;nan;100021.53;5033703;28;20037;-67
2022/11/20 02:58:37;;;;;;;18.00;11.13;;;;;;;3.08;nan;100027.84;5040899;28;20083;-67
2022/11/20 03:01:03;;;;;;;15.88;10.00;;;;;;;3.10;nan;100036.34;5042679;28;20060;-67
2022/11/20 03:03:28;;;;;;;15.80;9.88;;;;;;;3.09;nan;100032.09;5040112;28;20102;-67
2022/11/20 03:05:53;;;;;;;16.65;10.20;;;;;;;3.13;nan;100021.28;5045396;28;20071;-67
2022/11/20 03:08:18;;;;;;;13.75;9.05;;;;;;;3.15;nan;100019.41;5046381;28;20374;-67
2022/11/20 03:10:44;;;;;;;17.63;11.20;;;;;;;3.15;nan;100024.63;5038503;28;20037;-67
2022/11/20 03:13:09;;;;;;;15.93;10.30;;;;;;;3.19;nan;100030.44;5044087;28;20550;-67
2022/11/20 03:15:36;;;;;;;14.90;9.77;;;;;;;3.26;nan;100025.59;5047281;28;20036;-67
2022/11/20 03:18:01;;;;;;;16.63;9.55;;;;;;;3.24;nan;100017.84;5047052;28;20396;-67
2022/11/20 03:20:26;;;;;;;14.27;8.90;;;;;;;3.28;nan;100023.69;5039952;28;20037;-67
2022/11/20 03:22:53;;;;;;;12.60;8.02;;;;;;;3.30;nan;100016.56;5028703;28;20036;-67
2022/11/20 03:25:18;;;;;;;11.27;7.10;;;;;;;3.30;nan;100024.41;5045628;28;20036;-67
2022/11/20 03:27:44;;;;;;;9.10;5.82;;;;;;;3.34;nan;100024.06;5044816;28;20493;-67
2022/11/20 03:30:09;;;;;;;10.43;6.57;;;;;;;3.36;nan;100022.16;5042427;28;20044;-67
2022/11/20 03:32:35;;;;;;;10.25;6.28;;;;;;;3.39;nan;100015.88;5036564;28;20099;-67
2022/11/20 03:35:00;;;;;;;8.52;5.85;;;;;;;3.44;nan;100010.28;5045108;28;20044;-67
2022/11/20 03:37:25;;;;;;;9.52;5.93;;;;;;;3.48;nan;100016.91;5022828;28;20246;-67
2022/11/20 03:39:50;;;;;;;13.13;8.25;;;;;;;3.45;nan;100015.38;5044683;28;20064;-67
2022/11/20 03:44:59;;;;;;;12.02;7.30;;;;;;;3.46;nan;100024.91;5036087;28;20071;-67
2022/11/20 03:47:25;;;;;;;11.88;7.20;;;;;;;3.46;nan;100032.75;5027181;28;20030;-67
2022/11/20 03:49:50;;;;;;;11.40;7.00;;;;;;;3.46;nan;100026.69;5041192;28;20034;-67
2022/11/20 03:52:15;;;;;;;12.35;7.70;;;;;;;3.47;nan;100030.94;5048732;28;20043;-67
2022/11/20 03:54:40;;;;;;;14.25;8.30;;;;;;;3.47;nan;100033.56;5040557;28;20448;-67
2022/11/20 03:57:06;;;;;;;11.75;7.80;;;;;;;3.47;nan;100031.78;5040645;28;20033;-67
2022/11/20 03:59:31;;;;;;;11.10;7.53;;;;;;;3.43;nan;100032.94;5044606;28;20127;-67
2022/11/20 04:01:56;;;;;;;12.88;8.27;;;;;;;3.40;nan;100028.78;5043986;28;20033;-67
2022/11/20 04:04:22;;;;;;;13.13;8.10;;;;;;;3.47;nan;100023.09;5049679;28;20037;-67
2022/11/20 04:06:47;;;;;;;11.68;7.13;;;;;;;3.48;nan;100009.94;5049913;28;20041;-67
2022/11/20 04:09:12;;;;;;;11.43;7.82;;;;;;;3.50;nan;100020.25;5032229;28;20501;-67
2022/11/20 04:11:40;;;;;;;12.98;8.80;;;;;;;3.48;nan;100023.00;5048199;28;20133;-67
2022/11/20 04:14:11;;;;;;;16.08;10.95;;;;;;;3.43;nan;100024.28;5046639;28;20035;-67
2022/11/20 04:16:37;;;;;;;15.80;10.45;;;;;;;3.41;nan;100024.44;5050138;28;20040;-67
2022/11/20 04:19:04;;;;;;;15.38;9.40;;;;;;;3.40;nan;100028.78;5049727;28;20452;-67
2022/11/20 04:21:30;;;;;;;15.82;9.30;;;;;;;3.43;nan;100021.66;5049249;28;20064;-67
2022/11/20 04:23:56;;;;;;;14.80;9.13;;;;;;;3.46;nan;100018.84;5049756;28;20064;-67
2022/11/20 04:26:23;;;;;;;12.18;7.97;;;;;;;3.43;nan;100022.50;5049447;28;20033;-67
2022/11/20 04:28:48;;;;;;;16.90;10.70;;;;;;;3.39;nan;100021.91;5049724;28;20731;-67
2022/11/20 04:31:16;;;;;;;16.67;9.82;;;;;;;3.42;nan;100020.03;5028340;28;20113;-67
2022/11/20 04:33:41;;;;;;;16.98;11.38;;;;;;;3.38;nan;100004.59;5031327;28;20037;-67
2022/11/20 04:36:18;;;;;;;17.20;10.63;;;;;;;3.38;nan;100008.97;5037474;28;20029;-67
2022/11/20 04:38:44;;;;;;;15.43;9.82;;;;;;;3.38;nan;100001.97;5033201;28;20528;-67
2022/11/20 04:41:18;;;;;;;14.80;9.32;;;;;;;3.38;nan;100006.34;5031932;28;20021;-67
2022/11/20 04:43:50;;;;;;;18.98;10.45;;;;;;;3.39;nan;100016.69;5043865;28;20048;-67
2022/11/20 04:46:20;;;;;;;17.33;10.70;;;;;;;3.40;nan;100005.28;5041805;28;20029;-67
2022/11/20 04:48:46;;;;;;;18.58;11.65;;;;;;;3.44;nan;100002.44;5047207;28;20025;-67
2022/11/20 04:51:12;;;;;;;23.10;12.52;;;;;;;3.38;nan;100003.72;5048099;28;20032;-67
2022/11/20 04:53:37;;;;;;;16.55;10.52;;;;;;;3.39;nan;100008.84;5037085;28;20037;-67
2022/11/20 04:56:08;;;;;;;17.45;10.88;;;;;;;3.45;nan;100012.75;5033076;28;20033;-67
2022/11/20 04:58:33;;;;;;;15.50;9.35;;;;;;;3.48;nan;100009.94;5044164;28;20033;-67
2022/11/20 05:01:05;;;;;;;14.25;9.10;;;;;;;3.51;nan;100009.69;5039924;28;20041;-67
2022/11/20 05:03:31;;;;;;;16.48;9.65;;;;;;;3.51;nan;100006.25;5049153;28;20076;-67
2022/11/20 05:05:56;;;;;;;17.45;10.52;;;;;;;3.55;nan;100000.66;5039416;28;20060;-67
2022/11/20 05:08:22;;;;;;;19.30;11.35;;;;;;;3.47;nan;99997.78;5029101;28;20025;-67
2022/11/20 05:10:47;;;;;;;18.67;11.35;;;;;;;3.45;nan;99984.00;5047645;28;20545;-67
2022/11/20 05:13:12;;;;;;;18.10;11.60;;;;;;;3.45;nan;99993.63;5044537;28;20034;-67
2022/11/20 05:15:38;;;;;;;20.88;13.23;;;;;;;3.39;nan;99998.41;5045016;28;20091;-67
2022/11/20 05:18:03;;;;;;;22.35;13.48;;;;;;;3.40;nan;99994.00;5028317;28;20076;-68
2022/11/20 05:20:29;;;;;;;18.50;11.68;;;;;;;3.43;nan;100006.81;5042483;28;20036;-67
2022/11/20 05:22:57;;;;;;;20.42;12.50;;;;;;;3.48;nan;99998.63;5038322;28;20041;-67
2022/11/20 05:25:22;;;;;;;19.35;12.10;;;;;;;3.49;nan;99987.22;5041765;28;20060;-67
2022/11/20 05:27:47;;;;;;;16.63;10.32;;;;;;;3.49;nan;99985.44;5048604;28;20116;-67
2022/11/20 05:30:13;;;;;;;16.88;10.02;;;;;;;3.56;nan;99984.00;5047646;28;20120;-67
2022/11/20 05:32:38;;;;;;;17.35;10.80;;;;;;;3.58;nan;99979.50;5047797;28;20025;-67
2022/11/20 05:35:04;;;;;;;19.83;11.43;;;;;;;3.54;nan;99975.47;5048375;28;20041;-67
2022/11/20 05:37:29;;;;;;;19.05;11.18;;;;;;;3.53;nan;99976.41;5037001;28;20112;-67
2022/11/20 05:39:55;;;;;;;16.50;11.33;;;;;;;3.67;nan;99971.88;5045177;28;20905;-67
2022/11/20 05:42:32;;;;;;;15.73;10.35;;;;;;;3.66;nan;99976.28;5027884;28;20040;-67
2022/11/20 05:44:58;;;;;;;17.63;11.05;;;;;;;3.67;nan;99974.50;5038803;28;20041;-67
2022/11/20 05:47:24;;;;;;;16.70;9.77;;;;;;;3.70;nan;99974.25;5043514;28;20195;-67
2022/11/20 05:49:49;;;;;;;16.35;9.68;;;;;;;3.71;nan;99970.69;5026999;28;20246;-67
2022/11/20 05:52:15;;;;;;;11.88;7.60;;;;;;;3.75;nan;99969.50;5038650;28;20478;-67
2022/11/20 05:54:40;;;;;;;11.02;7.03;;;;;;;3.78;nan;99970.06;5023695;28;20057;-67
2022/11/20 05:57:05;;;;;;;11.57;7.15;;;;;;;3.80;nan;99977.81;5040674;28;20041;-67
2022/11/20 05:59:30;;;;;;;13.65;8.45;;;;;;;3.81;nan;99979.44;5040528;28;20471;-67
2022/11/20 06:01:56;;;;;;;13.70;8.73;;;;;;;3.82;nan;99976.72;5044991;28;20295;-67
2022/11/20 06:04:21;;;;;;;12.07;7.40;;;;;;;3.87;nan;99973.75;5045940;28;20079;-67
2022/11/20 06:06:46;;;;;;;13.68;8.02;;;;;;;3.88;nan;99975.41;5028090;28;20466;-67
2022/11/20 06:09:11;;;;;;;15.88;8.77;;;;;;;3.90;nan;99968.25;5043928;28;20124;-67
2022/11/20 06:11:37;;;;;;;16.70;10.05;;;;;;;3.92;nan;99968.97;5044140;28;20044;-67
2022/11/20 06:14:02;;;;;;;18.45;10.65;;;;;;;3.89;nan;99963.19;5042009;28;20037;-67
2022/11/20 06:16:27;;;;;;;15.32;9.60;;;;;;;3.91;nan;99967.34;5043825;28;20179;-67
2022/11/20 06:18:53;;;;;;;16.30;10.40;;;;;;;3.88;nan;99958.88;5043479;28;20043;-67
2022/11/20 06:21:21;;;;;;;16.75;10.20;;;;;;;3.86;nan;99968.63;5038642;28;20033;-67
2022/11/20 06:23:47;;;;;;;18.70;10.90;;;;;;;3.88;nan;99971.97;5043425;28;20116;-67
2022/11/20 06:26:18;;;;;;;16.75;9.98;;;;;;;3.89;nan;99971.03;5047350;28;20035;-67
2022/11/20 06:28:43;;;;;;;23.40;13.90;;;;;;;3.85;nan;99966.97;5047239;28;20235;-67
2022/11/20 06:31:11;;;;;;;19.35;11.52;;;;;;;3.86;nan;99966.00;5035440;28;20032;-67
2022/11/20 06:33:36;;;;;;;18.67;11.07;;;;;;;3.88;nan;99967.56;5040594;28;20037;-67
2022/11/20 06:36:03;;;;;;;15.63;9.32;;;;;;;3.95;nan;99970.50;5028237;28;20119;-67
2022/11/20 06:38:29;;;;;;;14.63;8.98;;;;;;;3.96;nan;99970.41;5038516;28;20053;-67
2022/11/20 06:40:55;;;;;;;16.67;10.02;;;;;;;3.97;nan;99968.63;5047025;28;20074;-67
2022/11/20 06:43:22;;;;;;;13.55;8.40;;;;;;;4.00;nan;99979.69;5047446;28;20035;-67
2022/11/20 06:45:52;;;;;;;15.85;9.25;;;;;;;4.02;nan;99967.28;5037090;28;20128;-67
2022/11/20 06:48:18;;;;;;;17.10;9.85;;;;;;;4.04;nan;99959.31;5043357;28;20095;-67
2022/11/20 06:50:43;;;;;;;15.25;9.48;;;;;;;4.07;nan;99963.47;5047324;28;20434;-67
2022/11/20 06:53:08;;;;;;;14.80;9.25;;;;;;;4.11;nan;99970.13;5047277;28;20040;-67
2022/11/20 06:55:33;;;;;;;18.77;10.77;;;;;;;4.11;nan;99980.59;5046760;28;20497;-67
2022/11/20 06:57:59;;;;;;;15.45;9.13;;;;;;;4.12;nan;99988.28;5038252;28;20116;-67
2022/11/20 07:00:24;;;;;;;16.38;9.65;;;;;;;4.10;nan;99986.75;5046818;28;20029;-66
2022/11/20 07:02:50;;;;;;;14.80;8.73;;;;;;;4.11;nan;99985.81;5019865;28;20040;-67
2022/11/20 07:05:16;;;;;;;16.90;9.20;;;;;;;4.10;nan;99990.22;5042910;28;20056;-67
2022/11/20 07:07:41;;;;;;;18.10;9.82;;;;;;;4.08;nan;99991.31;5041950;28;20041;-67
2022/11/20 07:10:07;;;;;;;18.95;10.32;;;;;;;4.06;nan;99983.56;5034817;28;20498;-67
2022/11/20 07:12:32;;;;;;;18.60;10.70;;;;;;;4.02;nan;99985.59;5039412;28;20382;-67
2022/11/20 07:14:57;;;;;;;19.17;10.75;;;;;;;3.98;nan;99985.97;5036900;28;20364;-67
2022/11/20 07:17:22;;;;;;;19.48;11.82;;;;;;;3.95;nan;99987.03;5038178;28;20540;-67
2022/11/20 07:19:48;;;;;;;16.70;10.30;;;;;;;3.99;nan;99988.47;5046675;28;20056;-67
2022/11/20 07:22:13;;;;;;;19.40;11.20;;;;;;;3.96;nan;99993.13;5043237;28;20115;-67
2022/11/20 07:24:39;;;;;;;18.27;11.25;;;;;;;3.98;nan;99991.19;5047123;28;20117;-67
2022/11/20 07:27:04;;;;;;;17.42;10.55;;;;;;;4.08;nan;99988.69;5045582;28;20025;-67
2022/11/20 07:29:29;;;;;;;15.60;8.95;;;;;;;4.09;nan;99993.78;5051287;28;20039;-67
2022/11/20 07:31:56;;;;;;;17.00;8.95;;;;;;;4.15;nan;99995.09;5050388;28;20032;-67
2022/11/20 07:34:21;;;;;;;14.75;8.40;;;;;;;4.22;nan;99993.66;5045386;28;20502;-67
2022/11/20 07:36:46;;;;;;;12.57;7.63;;;;;;;4.25;nan;99996.84;5036797;28;20354;-66
2022/11/20 07:39:11;;;;;;;13.55;8.25;;;;;;;4.26;nan;99995.88;5050886;28;20025;-66
2022/11/20 07:41:37;;;;;;;13.77;7.95;;;;;;;4.34;nan;99992.66;5050055;28;20464;-67
2022/11/20 07:44:02;;;;;;;15.82;9.25;;;;;;;4.34;nan;99992.66;5042371;28;20037;-66
2022/11/20 07:46:27;;;;;;;16.10;9.93;;;;;;;4.34;nan;99986.56;5044747;28;20037;-67
2022/11/20 07:48:53;;;;;;;16.80;9.85;;;;;;;4.38;nan;99993.22;5050580;28;20029;-67
2022/11/20 07:51:18;;;;;;;15.68;8.75;;;;;;;4.45;nan;99987.34;5050405;28;20033;-67
2022/11/20 07:53:43;;;;;;;14.82;9.07;;;;;;;4.53;nan;99991.13;5045406;28;20079;-67
2022/11/20 07:56:09;;;;;;;12.38;7.32;;;;;;;4.59;nan;99988.84;5043975;28;20486;-70
2022/11/20 07:58:34;;;;;;;14.05;7.85;;;;;;;4.65;nan;99988.34;5045227;28;20233;-69
2022/11/20 08:01:07;;;;;;;14.30;8.32;;;;;;;4.70;nan;99995.81;5037407;28;20033;-69
2022/11/20 08:03:33;;;;;;;13.82;8.10;;;;;;;4.73;nan;99990.31;5031911;28;20488;-66
2022/11/20 08:06:00;;;;;;;12.60;8.15;;;;;;;4.76;nan;99995.28;5050069;28;20452;-68
2022/11/20 08:08:25;;;;;;;13.02;8.40;;;;;;;4.76;nan;99997.91;5049250;28;20045;-66
2022/11/20 08:10:51;;;;;;;15.18;8.75;;;;;;;4.80;nan;99999.31;5047389;28;20036;-69
2022/11/20 08:16:00;;;;;;;15.48;9.10;;;;;;;4.86;nan;100004.06;5050156;28;20040;-68
2022/11/20 08:18:25;;;;;;;16.80;9.85;;;;;;;4.88;nan;100009.16;5043785;28;20053;-67
2022/11/20 08:20:50;;;;;;;15.18;9.80;;;;;;;4.93;nan;100014.00;5029913;28;20076;-68
2022/11/20 08:23:16;;;;;;;14.18;8.60;;;;;;;4.97;nan;100007.56;5048118;28;20040;-68
2022/11/20 08:25:41;;;;;;;14.90;9.05;;;;;;;5.01;nan;100017.66;5047389;28;20119;-68
2022/11/20 08:28:09;;;;;;;13.00;8.52;;;;;;;5.06;nan;100022.53;5030619;28;20032;-69
2022/11/20 08:30:35;;;;;;;15.95;9.52;;;;;;;5.09;nan;100025.69;5047188;28;20033;-67
2022/11/20 08:33:04;;;;;;;15.73;8.65;;;;;;;5.10;nan;100026.53;5028872;28;20155;-68
2022/11/20 08:35:33;;;;;;;15.30;9.15;;;;;;;5.13;nan;100028.91;5045742;28;20515;-69
2022/11/20 08:37:58;;;;;;;15.88;9.50;;;;;;;5.10;nan;100031.78;5049524;28;20037;-68
2022/11/20 08:40:24;;;;;;;17.85;9.60;;;;;;;5.05;nan;100041.81;5049297;28;20033;-69
2022/11/20 08:42:50;;;;;;;17.50;10.18;;;;;;;4.98;nan;100044.13;5048595;28;20404;-69
2022/11/20 08:45:17;;;;;;;16.48;9.27;;;;;;;4.97;nan;100047.69;5042649;28;20177;-68
2022/11/20 08:47:43;;;;;;;20.40;10.98;;;;;;;4.94;nan;100042.72;5049731;28;20448;-68
2022/11/20 08:50:10;;;;;;;22.40;12.52;;;;;;;4.86;nan;100052.97;5040901;28;20029;-69
2022/11/20 08:52:35;;;;;;;21.52;12.80;;;;;;;4.83;nan;100055.88;5045651;28;20037;-68
2022/11/20 08:55:01;;;;;;;30.35;16.10;;;;;;;4.75;nan;100064.34;5029782;28;20103;-68
2022/11/20 08:57:26;;;;;;;27.65;15.35;;;;;;;4.57;nan;100056.19;5042827;28;20041;-68
2022/11/20 08:59:51;;;;;;;34.42;16.95;;;;;;;4.51;nan;100061.13;5044227;28;20239;-68
2022/11/20 09:02:16;;;;;;;27.55;14.65;;;;;;;4.52;nan;100062.78;5048457;28;20036;-68
2022/11/20 09:04:42;;;;;;;27.20;15.60;;;;;;;4.50;nan;100064.69;5049222;28;20111;-68
2022/11/20 09:07:07;;;;;;;28.67;15.73;;;;;;;4.51;nan;100058.50;5031013;28;20036;-68
2022/11/20 09:09:33;;;;;;;31.80;15.55;;;;;;;4.51;nan;100061.13;5042535;28;20061;-68
2022/11/20 09:11:58;;;;;;;29.67;16.50;;;;;;;4.47;nan;100063.16;5047044;28;20033;-68
2022/11/20 09:14:28;;;;;;;34.22;17.60;;;;;;;4.43;nan;100057.34;5035241;28;20041;-68
2022/11/20 09:16:54;;;;;;;34.28;18.15;;;;;;;4.45;nan;100065.06;5030912;28;20082;-68
2022/11/20 09:19:19;;;;;;;27.15;14.93;;;;;;;4.49;nan;100065.66;5042980;28;20120;-68
2022/11/20 09:21:44;;;;;;;26.25;14.45;;;;;;;4.54;nan;100066.09;5047881;28;20036;-68
2022/11/20 09:24:10;;;;;;;28.02;14.98;;;;;;;4.57;nan;100065.84;5036642;28;20026;-68
2022/11/20 09:26:35;;;;;;;28.60;15.02;;;;;;;4.59;nan;100074.41;5035554;28;20033;-68
2022/11/20 09:29:00;;;;;;;30.88;15.35;;;;;;;4.61;nan;100072.50;5040287;28;20558;-68
2022/11/20 09:31:26;;;;;;;24.58;12.93;;;;;;;4.67;nan;100066.75;5048465;28;20063;-68
2022/11/20 09:33:51;;;;;;;27.42;14.68;;;;;;;4.65;nan;100060.84;5048142;28;20051;-68
2022/11/20 09:36:18;;;;;;;28.50;15.70;;;;;;;4.66;nan;100076.41;5048170;28;20048;-68
2022/11/20 09:38:47;;;;;;;27.35;13.90;;;;;;;4.73;nan;100070.69;5040086;28;20042;-68
2022/11/20 09:41:53;;;;;;;21.70;13.05;;;;;;;4.78;nan;100073.75;5028774;28;20026;-68
2022/11/20 09:44:25;;;;;;;22.70;12.43;;;;;;;4.83;nan;100072.41;5021970;28;20128;-68
2022/11/20 09:47:01;;;;;;;27.85;15.27;;;;;;;4.85;nan;100073.13;5044235;28;20039;-68
2022/11/20 09:49:59;;;;;;;34.05;17.35;;;;;;;4.82;nan;100077.78;5048613;28;20501;-68
2022/11/20 09:52:27;;;;;;;27.00;15.73;;;;;;;4.79;nan;100071.03;5046615;28;20037;-68
2022/11/20 09:54:54;;;;;;;22.67;13.18;;;;;;;4.86;nan;100072.19;5042597;28;20044;-68
2022/11/20 09:57:25;;;;;;;27.58;14.05;;;;;;;4.94;nan;100074.16;5040566;28;20114;-68
2022/11/20 09:59:56;;;;;;;20.10;11.05;;;;;;;5.02;nan;100060.41;5021166;28;20083;-68
2022/11/20 10:02:24;;;;;;;23.35;12.18;;;;;;;5.08;nan;100067.78;5039248;28;20098;-68
2022/11/20 10:05:22;;;;;;;20.20;11.70;;;;;;;5.15;nan;100065.47;5041410;28;20033;-68
2022/11/20 10:07:56;;;;;;;20.45;11.20;;;;;;;5.22;nan;100067.47;5044226;28;20037;-68
2022/11/20 10:10:32;;;;;;;22.13;12.20;;;;;;;5.17;nan;100066.16;5046004;28;20021;-69
2022/11/20 10:13:16;;;;;;;21.80;12.57;;;;;;;5.13;nan;100067.41;5037494;28;20033;-68
2022/11/20 10:15:51;;;;;;;22.08;12.20;;;;;;;5.21;nan;100064.97;5030079;28;20036;-68
2022/11/20 10:18:33;;;;;;;24.30;11.80;;;;;;;5.24;nan;100067.31;5040691;28;20060;-68
2022/11/20 10:21:24;;;;;;;21.98;12.15;;;;;;;5.27;nan;100072.31;5030078;28;20066;-68
2022/11/20 10:23:59;;;;;;;25.95;14.13;;;;;;;5.24;nan;100073.41;5045128;28;20552;-68
2022/11/20 10:26:45;;;;;;;36.70;18.35;;;;;;;5.13;nan;100068.22;5037254;28;20334;-68
2022/11/20 10:29:16;;;;;;;32.63;17.25;;;;;;;5.11;nan;100067.50;5033230;28;20631;-67
2022/11/20 10:31:50;;;;;;;;;;;;;;;5.06;nan;100057.41;5044331;28;20397;-67
2022/11/20 10:34:19;;;;;;;31.85;16.25;;;;;;;5.04;nan;100059.31;5037373;28;19978;-68
2022/11/20 10:36:52;;;;;;;28.27;14.63;;;;;;;5.08;nan;100055.50;5038135;28;20441;-67
2022/11/20 10:39:39;;;;;;;26.98;15.15;;;;;;;5.10;nan;100052.72;5044943;28;20064;-67
2022/11/20 10:42:10;;;;;;;33.55;18.15;;;;;;;5.13;nan;100055.13;5041134;28;20069;-68
2022/11/20 10:47:21;;;;;;;26.45;14.40;;;;;;;5.24;nan;100043.72;5042551;28;20048;-68
2022/11/20 10:49:51;;;;;;;28.45;15.15;;;;;;;5.24;nan;100052.44;5045786;28;20489;-69
2022/11/20 10:52:16;;;;;;;25.00;13.27;;;;;;;5.28;nan;100043.34;5022166;28;20116;-68
2022/11/20 10:54:59;;;;;;;25.20;12.57;;;;;;;5.30;nan;100041.41;5034119;28;20174;-68
2022/11/20 10:57:50;;;;;;;36.78;18.05;;;;;;;5.30;nan;100037.97;5039543;28;20422;-68
2022/11/20 11:00:19;;;;;;;36.30;18.83;;;;;;;5.29;nan;100036.28;5030428;28;20191;-68
2022/11/20 11:02:50;;;;;;;36.50;18.08;;;;;;;5.28;nan;100039.88;5025354;28;20086;-68
2022/11/20 11:05:37;;;;;;;28.13;14.85;;;;;;;5.29;nan;100031.06;5039140;28;20044;-68
2022/11/20 11:08:05;;;;;;;27.05;14.48;;;;;;;5.40;nan;100028.34;5043705;28;20043;-68
2022/11/20 11:10:52;;;;;;;25.60;14.25;;;;;;;5.58;nan;100028.59;5039620;28;20420;-68
2022/11/20 11:13:26;;;;;;;22.42;12.25;;;;;;;5.71;nan;100023.94;5038616;28;20052;-68
2022/11/20 11:15:52;;;;;;;24.67;12.88;;;;;;;5.79;nan;100017.19;5044457;28;20454;-68
2022/11/20 11:18:25;;;;;;;22.08;11.48;;;;;;;5.79;nan;100018.00;5039386;28;20502;-68
2022/11/20 11:20:51;;;;;;;26.63;13.52;;;;;;;5.77;nan;100017.34;5042997;28;20045;-68
2022/11/20 11:23:34;;;;;;;31.27;18.33;;;;;;;5.71;nan;100018.69;5040601;28;20040;-68
2022/11/20 11:26:01;;;;;;;30.48;16.67;;;;;;;5.66;nan;100015.63;5040063;28;20120;-68
2022/11/20 11:28:28;;;;;;;29.15;17.05;;;;;;;5.68;nan;100015.50;5044380;28;20095;-68
2022/11/20 11:30:54;;;;;;;31.95;17.88;;;;;;;5.70;nan;100010.97;5046426;28;20452;-68
2022/11/20 11:33:33;;;;;;;31.63;17.23;;;;;;;5.72;nan;100006.38;5040784;28;20361;-68
2022/11/20 11:36:15;;;;;;;26.10;14.88;;;;;;;5.76;nan;100010.41;5040205;28;20425;-68
2022/11/20 11:38:42;;;;;;;25.50;14.70;;;;;;;5.75;nan;100006.16;5039556;28;20036;-68
2022/11/20 11:41:23;;;;;;;29.17;16.23;;;;;;;5.68;nan;100011.09;5032534;28;20140;-68
2022/11/20 11:46:58;;;;;;;34.47;17.70;;;;;;;5.66;nan;100004.31;5043654;28;20110;-68
2022/11/20 11:49:23;;;;;;;32.95;17.33;;;;;;;5.61;nan;99994.22;5026082;28;20112;-68
2022/11/20 11:52:13;;;;;;;28.55;15.35;;;;;;;5.55;nan;99986.88;5039389;28;20052;-69
2022/11/20 11:54:49;;;;;;;25.40;14.20;;;;;;;5.66;nan;99989.41;5030317;28;20033;-68